createdAt,value
2022-11-19T00:01:43.602Z,101181.38
2022-11-19T00:04:45.170Z,101189.22
2022-11-19T00:07:46.715Z,101187.50
2022-11-19T00:10:48.312Z,101188.38
2022-11-19T00:13:50.072Z,101191.00
2022-11-19T00:16:51.662Z,101194.50
2022-11-19T00:19:53.220Z,101194.50
2022-11-19T00:22:57.178Z,101194.56
2022-11-19T00:26:07.844Z,101202.38
2022-11-19T00:29:16.747Z,101205.88
2022-11-19T00:32:19.622Z,101203.28
2022-11-19T00:35:21.318Z,101212.84
2022-11-19T00:38:22.900Z,101212.00
2022-11-19T00:41:24.485Z,101212.00
2022-11-19T00:44:26.025Z,101218.97
2022-11-19T00:47:27.587Z,101214.63
2022-11-19T00:50:29.144Z,101221.59
2022-11-19T00:53:30.887Z,101221.59
2022-11-19T00:56:32.416Z,101232.06
2022-11-19T00:59:33.992Z,101230.34
2022-11-19T01:02:35.503Z,101228.56
2022-11-19T01:05:37.059Z,101228.56
2022-11-19T01:08:39.346Z,101231.19
2022-11-19T01:11:41.113Z,101228.63
2022-11-19T01:14:42.680Z,101235.56
2022-11-19T01:17:44.262Z,101228.63
2022-11-19T01:20:46.255Z,101229.50
2022-11-19T01:23:48.638Z,101237.31
2022-11-19T01:26:50.242Z,101229.50
2022-11-19T01:29:51.800Z,101239.09
2022-11-19T01:32:53.335Z,101238.25
2022-11-19T01:35:56.869Z,101235.63
2022-11-19T01:38:58.458Z,101244.34
2022-11-19T01:42:00.024Z,101245.22
2022-11-19T01:45:06.647Z,101238.25
2022-11-19T01:48:14.021Z,101240.00
2022-11-19T01:51:54.383Z,101247.81
2022-11-19T01:54:56.224Z,101250.47
2022-11-19T01:58:03.762Z,101250.47
2022-11-19T02:01:07.155Z,101253.91
2022-11-19T02:04:09.496Z,101269.56
2022-11-19T02:07:12.479Z,101266.09
2022-11-19T02:10:14.174Z,101275.66
2022-11-19T02:13:36.928Z,101269.56
2022-11-19T02:16:56.715Z,101275.66
2022-11-19T02:20:16.895Z,101272.19
2022-11-19T02:23:46.687Z,101281.75
2022-11-19T02:27:17.652Z,101286.13
2022-11-19T02:30:20.179Z,101285.25
2022-11-19T02:33:25.014Z,101290.44
2022-11-19T02:36:35.263Z,101298.25
2022-11-19T02:39:40.440Z,101301.75
2022-11-19T02:42:56.857Z,101295.66
2022-11-19T02:46:12.894Z,101294.78
2022-11-19T02:49:16.932Z,101289.59
2022-11-19T02:52:19.043Z,101293.09
2022-11-19T02:55:22.170Z,101296.59
2022-11-19T02:58:42.825Z,101298.31
2022-11-19T03:02:06.006Z,101296.63
2022-11-19T03:05:11.614Z,101299.25
2022-11-19T03:08:13.282Z,101302.72
2022-11-19T03:11:24.175Z,101306.19
2022-11-19T03:15:12.246Z,101306.19
2022-11-19T03:18:22.479Z,101304.47
2022-11-19T03:21:46.109Z,101305.31
2022-11-19T03:24:56.738Z,101301.88
2022-11-19T03:28:04.392Z,101307.06
2022-11-19T03:31:07.292Z,101310.53
2022-11-19T03:34:15.440Z,101307.91
2022-11-19T03:37:21.434Z,101320.09
2022-11-19T03:40:25.021Z,101311.41
2022-11-19T03:43:29.385Z,101310.56
2022-11-19T03:46:33.814Z,101318.38
2022-11-19T03:49:41.207Z,101325.31
2022-11-19T03:52:43.620Z,101331.38
2022-11-19T03:55:51.540Z,101331.41
2022-11-19T03:58:54.012Z,101329.69
2022-11-19T04:01:58.683Z,101335.75
2022-11-19T04:05:00.264Z,101339.22
2022-11-19T04:08:01.888Z,101342.69
2022-11-19T04:14:04.012Z,101348.78
2022-11-19T04:17:05.522Z,101344.44
2022-11-19T04:20:08.286Z,101347.03
2022-11-19T04:23:09.853Z,101354.84
2022-11-19T04:26:11.456Z,101347.03
2022-11-19T04:29:13.139Z,101354.84
2022-11-19T04:32:14.657Z,101347.91
2022-11-19T04:35:18.268Z,101354.84
2022-11-19T04:38:19.829Z,101346.19
2022-11-19T04:41:21.408Z,101343.56
2022-11-19T04:44:23.052Z,101347.03
2022-11-19T04:47:24.616Z,101349.66
2022-11-19T04:50:26.183Z,101337.50
2022-11-19T04:53:27.731Z,101345.31
2022-11-19T04:56:29.288Z,101343.56
2022-11-19T04:59:30.824Z,101348.78
2022-11-19T05:02:32.427Z,101350.53
2022-11-19T05:05:33.955Z,101349.66
2022-11-19T05:08:35.503Z,101357.47
2022-11-19T05:11:37.068Z,101354.00
2022-11-19T05:14:38.713Z,101357.47
2022-11-19T05:17:40.287Z,101356.59
2022-11-19T05:20:41.837Z,101355.75
2022-11-19T05:23:43.410Z,101357.47
2022-11-19T05:26:44.972Z,101359.19
2022-11-19T05:29:46.528Z,101358.34
2022-11-19T05:32:48.284Z,101356.59
2022-11-19T05:35:49.848Z,101360.94
2022-11-19T05:38:51.413Z,101362.69
2022-11-19T05:41:53.050Z,101365.28
2022-11-19T05:44:54.660Z,101362.69
2022-11-19T05:47:56.207Z,101360.06
2022-11-19T05:50:57.767Z,101365.28
2022-11-19T05:53:59.398Z,101360.94
2022-11-19T05:57:01.135Z,101357.47
2022-11-19T06:00:02.827Z,101349.63
2022-11-19T06:03:04.476Z,101354.84
2022-11-19T06:06:06.647Z,101353.13
2022-11-19T06:09:08.337Z,101357.47
2022-11-19T06:12:09.966Z,101355.72
2022-11-19T06:15:11.503Z,101355.72
2022-11-19T06:18:13.045Z,101354.88
2022-11-19T06:21:14.585Z,101367.91
2022-11-19T06:24:16.171Z,101360.94
2022-11-19T06:27:17.760Z,101362.66
2022-11-19T06:30:19.360Z,101360.94
2022-11-19T06:33:20.919Z,101360.91
2022-11-19T06:36:26.190Z,101364.00
2022-11-19T06:39:29.825Z,101356.63
2022-11-19T06:42:37.201Z,101350.41
2022-11-19T06:45:38.836Z,101358.28
2022-11-19T06:48:40.683Z,101362.69
2022-11-19T06:51:42.224Z,101375.84
2022-11-19T06:54:43.778Z,101377.69
2022-11-19T06:57:45.324Z,101376.91
2022-11-19T07:00:47.111Z,101382.22
2022-11-19T07:03:48.658Z,101377.06
2022-11-19T07:06:50.207Z,101402.31
2022-11-19T07:09:51.750Z,101390.97
2022-11-19T07:12:53.283Z,101396.19
2022-11-19T07:15:54.771Z,101398.81
2022-11-19T07:19:01.700Z,101397.09
2022-11-19T07:22:03.322Z,101396.28
2022-11-19T07:25:05.248Z,101398.00
2022-11-19T07:28:08.621Z,101393.69
2022-11-19T07:31:10.400Z,101406.72
2022-11-19T07:34:12.103Z,101391.09
2022-11-19T07:37:13.660Z,101396.28
2022-11-19T07:40:16.799Z,101391.94
2022-11-19T07:43:18.342Z,101391.97
2022-11-19T07:46:19.970Z,101402.41
2022-11-19T07:49:22.042Z,101398.06
2022-11-19T07:52:23.733Z,101405.91
2022-11-19T07:55:25.265Z,101391.13
2022-11-19T07:58:26.802Z,101397.19
2022-11-19T08:01:28.653Z,101397.19
2022-11-19T08:04:30.280Z,101400.69
2022-11-19T08:07:31.899Z,101405.91
2022-11-19T08:10:33.534Z,101404.16
2022-11-19T08:13:35.684Z,101407.63
2022-11-19T08:16:55.807Z,101411.09
2022-11-19T08:19:57.388Z,101405.91
2022-11-19T08:22:58.923Z,101406.72
2022-11-19T08:26:00.559Z,101405.91
2022-11-19T08:29:02.096Z,101401.53
2022-11-19T08:32:03.966Z,101405.00
2022-11-19T08:35:06.076Z,101411.09
2022-11-19T08:38:07.616Z,101408.47
2022-11-19T08:41:27.931Z,101418.00
2022-11-19T08:44:29.475Z,101401.47
2022-11-19T08:47:31.007Z,101399.72
2022-11-19T08:50:33.615Z,101397.09
2022-11-19T08:53:35.179Z,101410.13
2022-11-19T08:56:36.793Z,101402.28
2022-11-19T08:59:38.341Z,101407.47
2022-11-19T09:02:39.899Z,101416.19
2022-11-19T09:05:41.476Z,101408.31
2022-11-19T09:08:43.522Z,101408.28
2022-11-19T09:11:45.099Z,101408.25
2022-11-19T09:14:46.631Z,101408.19
2022-11-19T09:17:48.197Z,101408.09
2022-11-19T09:20:55.170Z,101411.50
2022-11-19T09:23:56.733Z,101410.44
2022-11-19T09:27:02.113Z,101412.03
2022-11-19T09:30:06.263Z,101413.66
2022-11-19T09:33:07.819Z,101412.69
2022-11-19T09:36:11.311Z,101416.09
2022-11-19T09:39:12.900Z,101422.13
2022-11-19T09:42:16.512Z,101414.19
2022-11-19T09:45:45.775Z,101420.16
2022-11-19T09:48:50.688Z,101417.44
2022-11-19T09:51:58.721Z,101417.34
2022-11-19T09:55:01.737Z,101423.34
2022-11-19T09:58:15.675Z,101419.78
2022-11-19T10:01:18.937Z,101413.59
2022-11-19T10:04:26.949Z,101414.28
2022-11-19T10:07:47.075Z,101403.72
2022-11-19T10:11:11.836Z,101404.41
2022-11-19T10:14:37.552Z,101403.41
2022-11-19T10:17:47.859Z,101404.13
2022-11-19T10:20:55.830Z,101401.38
2022-11-19T10:24:03.033Z,101403.03
2022-11-19T10:27:12.516Z,101402.00
2022-11-19T10:30:19.560Z,101389.56
2022-11-19T10:33:37.843Z,101391.06
2022-11-19T10:36:53.071Z,101391.69
2022-11-19T10:40:19.808Z,101387.94
2022-11-19T10:43:32.251Z,101386.00
2022-11-19T10:46:33.929Z,101382.38
2022-11-19T10:49:39.952Z,101371.75
2022-11-19T10:52:45.893Z,101374.25
2022-11-19T10:55:54.550Z,101365.34
2022-11-19T10:59:01.393Z,101367.81
2022-11-19T11:02:27.592Z,101357.84
2022-11-19T11:05:29.881Z,101354.88
2022-11-19T11:08:32.308Z,101351.97
2022-11-19T11:11:52.934Z,101344.03
2022-11-19T11:14:59.718Z,101343.22
2022-11-19T11:18:04.000Z,101332.66
2022-11-19T11:21:05.939Z,101342.88
2022-11-19T11:24:07.739Z,101336.38
2022-11-19T11:27:31.083Z,101336.19
2022-11-19T11:30:33.268Z,101332.44
2022-11-19T11:33:42.562Z,101329.53
2022-11-19T11:36:44.450Z,101323.28
2022-11-19T11:39:50.045Z,101322.94
2022-11-19T11:42:53.159Z,101327.31
2022-11-19T11:45:59.848Z,101325.94
2022-11-19T11:49:08.278Z,101327.53
2022-11-19T11:52:20.220Z,101325.63
2022-11-19T11:55:24.476Z,101325.53
2022-11-19T11:58:26.036Z,101322.03
2022-11-19T12:01:28.194Z,101321.16
2022-11-19T12:04:31.895Z,101323.06
2022-11-19T12:07:48.457Z,101320.44
2022-11-19T12:11:06.322Z,101316.84
2022-11-19T12:14:12.684Z,101315.81
2022-11-19T12:17:26.580Z,101306.16
2022-11-19T12:20:49.830Z,101308.94
2022-11-19T12:23:51.337Z,101310.56
2022-11-19T12:27:27.338Z,101318.22
2022-11-19T12:30:57.621Z,101313.69
2022-11-19T12:34:05.201Z,101309.97
2022-11-19T12:37:31.863Z,101302.84
2022-11-19T12:40:51.925Z,101305.50
2022-11-19T12:44:00.839Z,101309.94
2022-11-19T12:47:05.210Z,101316.16
2022-11-19T12:50:21.779Z,101307.41
2022-11-19T12:53:32.408Z,101303.09
2022-11-19T12:57:08.052Z,101303.97
2022-11-19T13:00:11.102Z,101292.50
2022-11-19T13:03:21.110Z,101294.00
2022-11-19T13:06:29.643Z,101291.31
2022-11-19T13:09:58.720Z,101290.50
2022-11-19T13:13:01.359Z,101281.88
2022-11-19T13:16:09.335Z,101290.69
2022-11-19T13:19:24.798Z,101286.34
2022-11-19T13:22:32.508Z,101285.47
2022-11-19T13:25:42.777Z,101275.00
2022-11-19T13:28:50.630Z,101269.81
2022-11-19T13:32:03.093Z,101263.75
2022-11-19T13:35:10.662Z,101262.00
2022-11-19T13:38:31.111Z,101263.81
2022-11-19T13:42:02.913Z,101254.19
2022-11-19T13:45:05.009Z,101252.91
2022-11-19T13:48:26.406Z,101245.28
2022-11-19T13:51:34.035Z,101248.84
2022-11-19T13:54:41.271Z,101251.63
2022-11-19T13:57:45.044Z,101253.56
2022-11-19T14:01:15.625Z,101254.75
2022-11-19T14:04:35.467Z,101255.84
2022-11-19T14:08:01.471Z,101250.84
2022-11-19T14:11:16.682Z,101247.59
2022-11-19T14:15:12.232Z,101243.41
2022-11-19T14:18:42.656Z,101248.03
2022-11-19T14:22:44.280Z,101242.13
2022-11-19T14:26:06.282Z,101238.78
2022-11-19T14:29:27.758Z,101242.44
2022-11-19T14:32:32.429Z,101241.78
2022-11-19T14:35:37.506Z,101251.56
2022-11-19T14:38:47.192Z,101257.03
2022-11-19T14:42:15.008Z,101252.81
2022-11-19T14:45:20.421Z,101255.66
2022-11-19T14:48:22.982Z,101249.66
2022-11-19T14:51:33.610Z,101243.66
2022-11-19T14:54:43.119Z,101243.81
2022-11-19T14:57:53.187Z,101233.47
2022-11-19T15:01:10.546Z,101234.56
2022-11-19T15:04:13.493Z,101233.81
2022-11-19T15:07:25.300Z,101234.84
2022-11-19T15:10:31.839Z,101229.75
2022-11-19T15:13:40.771Z,101232.53
2022-11-19T15:16:47.071Z,101223.09
2022-11-19T15:20:16.092Z,101223.31
2022-11-19T15:23:40.532Z,101221.72
2022-11-19T15:26:55.936Z,101211.84
2022-11-19T15:30:10.847Z,101211.97
2022-11-19T15:33:34.186Z,101212.97
2022-11-19T15:36:39.766Z,101209.72
2022-11-19T15:39:54.185Z,101209.91
2022-11-19T15:43:13.308Z,101203.91
2022-11-19T15:46:30.135Z,101197.09
2022-11-19T15:49:34.943Z,101206.84
2022-11-19T15:52:36.504Z,101205.25
2022-11-19T15:55:39.405Z,101194.91
2022-11-19T15:58:45.304Z,101196.78
2022-11-19T16:01:59.469Z,101200.34
2022-11-19T16:05:01.260Z,101198.75
2022-11-19T16:08:08.664Z,101196.25
2022-11-19T16:11:35.119Z,101205.06
2022-11-19T16:14:55.557Z,101196.44
2022-11-19T16:17:57.111Z,101193.06
2022-11-19T16:20:59.135Z,101190.50
2022-11-19T16:24:20.211Z,101194.06
2022-11-19T16:27:25.070Z,101189.75
2022-11-19T16:30:29.358Z,101186.34
2022-11-19T16:33:33.174Z,101182.03
2022-11-19T16:36:34.775Z,101180.34
2022-11-19T16:39:37.139Z,101178.69
2022-11-19T16:42:38.648Z,101186.63
2022-11-19T16:45:45.623Z,101180.56
2022-11-19T16:48:50.252Z,101178.88
2022-11-19T16:51:53.774Z,101175.47
2022-11-19T16:54:55.289Z,101172.94
2022-11-19T16:57:59.933Z,101174.78
2022-11-19T17:01:01.771Z,101167.84
2022-11-19T17:04:09.340Z,101162.66
2022-11-19T17:07:14.542Z,101165.34
2022-11-19T17:10:19.937Z,101168.06
2022-11-19T17:13:32.364Z,101162.09
2022-11-19T17:16:35.226Z,101164.78
2022-11-19T17:19:37.077Z,101163.13
2022-11-19T17:22:39.796Z,101162.41
2022-11-19T17:26:01.085Z,101161.63
2022-11-19T17:29:11.345Z,101166.97
2022-11-19T17:32:13.011Z,101165.34
2022-11-19T17:35:47.991Z,101156.69
2022-11-19T17:38:49.693Z,101166.34
2022-11-19T17:42:12.972Z,101167.31
2022-11-19T17:45:14.699Z,101165.66
2022-11-19T17:48:24.658Z,101170.94
2022-11-19T17:51:26.431Z,101172.75
2022-11-19T17:54:30.107Z,101174.59
2022-11-19T17:57:32.476Z,101178.13
2022-11-19T18:00:34.049Z,101179.00
2022-11-19T18:03:35.625Z,101184.44
2022-11-19T18:06:37.758Z,101183.84
2022-11-19T18:09:40.324Z,101180.34
2022-11-19T18:12:41.923Z,101179.47
2022-11-19T18:15:43.547Z,101180.47
2022-11-19T18:18:45.507Z,101185.09
2022-11-19T18:21:47.032Z,101181.78
2022-11-19T18:24:50.232Z,101174.13
2022-11-19T18:27:51.751Z,101183.00
2022-11-19T18:30:53.848Z,101177.06
2022-11-19T18:33:56.356Z,101180.59
2022-11-19T18:36:57.987Z,101186.00
2022-11-19T18:39:59.591Z,101181.72
2022-11-19T18:43:19.672Z,101183.53
2022-11-19T18:46:21.697Z,101186.25
2022-11-19T18:49:23.564Z,101188.91
2022-11-19T18:52:25.140Z,101188.09
2022-11-19T18:55:26.858Z,101185.47
2022-11-19T18:58:28.549Z,101180.31
2022-11-19T19:01:30.920Z,101183.78
2022-11-19T19:04:32.531Z,101186.38
2022-11-19T19:07:34.230Z,101182.00
2022-11-19T19:10:36.342Z,101183.78
2022-11-19T19:13:37.875Z,101180.31
2022-11-19T19:16:39.579Z,101174.22
2022-11-19T19:19:41.531Z,101173.38
2022-11-19T19:22:43.124Z,101172.47
2022-11-19T19:25:44.644Z,101176.81
2022-11-19T19:28:51.766Z,101181.16
2022-11-19T19:31:53.745Z,101175.91
2022-11-19T19:34:55.328Z,101177.66
2022-11-19T19:37:56.856Z,101175.00
2022-11-19T19:41:06.938Z,101167.09
2022-11-19T19:44:10.420Z,101177.47
2022-11-19T19:47:12.377Z,101175.69
2022-11-19T19:50:14.083Z,101169.53
2022-11-19T19:53:15.607Z,101158.16
2022-11-19T19:56:22.612Z,101160.75
2022-11-19T19:59:24.834Z,101160.66
2022-11-19T20:02:26.445Z,101158.03
2022-11-19T20:05:28.452Z,101154.50
2022-11-19T20:08:30.257Z,101151.00
2022-11-19T20:11:31.917Z,101148.38
2022-11-19T20:14:33.471Z,101147.44
2022-11-19T20:17:35.046Z,101144.78
2022-11-19T20:20:36.564Z,101143.84
2022-11-19T20:23:39.878Z,101143.81
2022-11-19T20:26:42.415Z,101151.59
2022-11-19T20:29:44.444Z,101148.88
2022-11-19T20:32:46.189Z,101144.53
2022-11-19T20:35:53.952Z,101151.59
2022-11-19T20:38:57.509Z,101146.41
2022-11-19T20:42:17.729Z,101150.00
2022-11-19T20:45:19.312Z,101142.22
2022-11-19T20:48:20.891Z,101142.16
2022-11-19T20:51:22.447Z,101136.81
2022-11-19T20:54:25.152Z,101140.25
2022-11-19T20:57:26.747Z,101144.56
2022-11-19T21:00:28.464Z,101140.16
2022-11-19T21:03:30.560Z,101131.53
2022-11-19T21:06:32.624Z,101129.06
2022-11-19T21:09:34.371Z,101122.88
2022-11-19T21:12:35.919Z,101128.03
2022-11-19T21:15:37.487Z,101127.97
2022-11-19T21:18:39.591Z,101122.72
2022-11-19T21:21:41.697Z,101129.78
2022-11-19T21:24:43.260Z,101121.84
2022-11-19T21:27:44.973Z,101125.28
2022-11-19T21:30:52.159Z,101131.34
2022-11-19T21:33:53.682Z,101128.63
2022-11-19T21:36:57.945Z,101135.56
2022-11-19T21:40:00.006Z,101131.13
2022-11-19T21:43:01.615Z,101119.59
2022-11-19T21:46:07.065Z,101121.75
2022-11-19T21:49:08.650Z,101116.41
2022-11-19T21:52:10.187Z,101115.56
2022-11-19T21:55:11.951Z,101117.31
2022-11-19T21:58:17.295Z,101106.84
2022-11-19T22:01:18.944Z,101106.84
2022-11-19T22:04:20.671Z,101106.00
2022-11-19T22:07:22.350Z,101101.59
2022-11-19T22:10:23.914Z,101104.22
2022-11-19T22:13:25.783Z,101107.72
2022-11-19T22:16:28.284Z,101107.69
2022-11-19T22:19:29.819Z,101099.78
2022-11-19T22:22:31.403Z,101094.53
2022-11-19T22:25:34.628Z,101092.78
2022-11-19T22:28:36.228Z,101087.56
2022-11-19T22:31:37.740Z,101088.41
2022-11-19T22:34:39.475Z,101094.50
2022-11-19T22:37:40.998Z,101085.69
2022-11-19T22:40:42.517Z,101091.75
2022-11-19T22:43:44.272Z,101090.84
2022-11-19T22:46:45.852Z,101083.81
2022-11-19T22:49:47.437Z,101085.47
2022-11-19T22:52:49.037Z,101078.44
2022-11-19T22:55:51.465Z,101087.16
2022-11-19T22:58:53.415Z,101077.56
2022-11-19T23:01:54.939Z,101081.00
2022-11-19T23:04:56.448Z,101075.75
2022-11-19T23:07:58.022Z,101077.56
2022-11-19T23:11:01.677Z,101078.38
2022-11-19T23:14:03.691Z,101066.19
2022-11-19T23:17:05.452Z,101069.25
2022-11-19T23:20:07.490Z,101069.25
2022-11-19T23:23:09.045Z,101071.03
2022-11-19T23:26:13.110Z,101065.00
2022-11-19T23:29:14.739Z,101061.56
2022-11-19T23:32:16.287Z,101067.75
2022-11-19T23:35:17.804Z,101061.69
2022-11-19T23:38:19.369Z,101052.19
2022-11-19T23:41:22.176Z,101058.31
2022-11-19T23:44:23.707Z,101054.00
2022-11-19T23:47:25.463Z,101054.94
2022-11-19T23:50:27.036Z,101054.09
2022-11-19T23:53:28.639Z,101050.63
2022-11-19T23:56:32.290Z,101042.81
2022-11-19T23:59:35.447Z,101042.81
